createdAt,value
2023-03-26T00:01:33.317Z,9.13
2023-03-26T00:04:01.513Z,9.15
2023-03-26T00:06:34.512Z,8.98
2023-03-26T00:09:02.799Z,8.98
2023-03-26T00:11:30.531Z,8.74
2023-03-26T00:13:58.684Z,8.90
2023-03-26T00:16:29.347Z,8.98
2023-03-26T00:18:57.665Z,8.99
2023-03-26T00:21:27.044Z,8.97
2023-03-26T00:24:03.121Z,8.97
2023-03-26T00:26:31.711Z,8.82
2023-03-26T00:28:59.816Z,8.99
2023-03-26T00:31:27.815Z,8.79
2023-03-26T00:33:55.953Z,8.83
2023-03-26T00:36:25.541Z,8.81
2023-03-26T00:38:54.433Z,8.84
2023-03-26T00:41:24.438Z,8.81
2023-03-26T00:43:55.090Z,8.77
2023-03-26T00:46:24.266Z,8.66
2023-03-26T00:48:53.035Z,8.84
2023-03-26T00:51:21.541Z,8.70
2023-03-26T00:53:50.303Z,8.74
2023-03-26T00:56:18.769Z,8.74
2023-03-26T00:58:47.047Z,8.76
2023-03-26T01:01:19.396Z,8.49
2023-03-26T01:04:01.236Z,8.47
2023-03-26T01:06:33.816Z,8.52
2023-03-26T01:09:04.941Z,8.46
2023-03-26T01:11:35.125Z,8.64
2023-03-26T01:14:10.323Z,8.46
2023-03-26T01:16:55.429Z,8.54
2023-03-26T01:19:45.178Z,8.59
2023-03-26T01:22:19.194Z,8.84
2023-03-26T01:24:47.784Z,8.74
2023-03-26T01:27:20.888Z,8.83
2023-03-26T01:30:12.825Z,8.78
2023-03-26T01:32:44.012Z,8.99
2023-03-26T01:35:15.088Z,8.92
2023-03-26T01:38:16.056Z,9.13
2023-03-26T01:41:05.030Z,8.93
2023-03-26T01:43:38.817Z,8.80
2023-03-26T01:46:09.613Z,8.70
2023-03-26T01:48:40.335Z,8.74
2023-03-26T01:51:09.439Z,9.02
2023-03-26T01:53:45.209Z,8.90
2023-03-26T01:56:27.636Z,8.90
2023-03-26T01:59:00.644Z,8.99
2023-03-26T02:01:33.256Z,9.08
2023-03-26T02:04:22.165Z,8.87
2023-03-26T02:07:04.718Z,9.10
2023-03-26T02:09:37.893Z,9.10
2023-03-26T02:12:07.065Z,8.92
2023-03-26T02:14:35.860Z,9.04
2023-03-26T02:17:03.626Z,9.02
2023-03-26T02:19:31.403Z,9.18
2023-03-26T02:21:59.816Z,9.18
2023-03-26T02:24:30.780Z,8.96
2023-03-26T02:26:58.626Z,9.01
2023-03-26T02:29:26.904Z,8.85
2023-03-26T02:31:54.877Z,8.71
2023-03-26T02:34:22.608Z,8.46
2023-03-26T02:36:50.956Z,8.35
2023-03-26T02:39:18.839Z,8.31
2023-03-26T02:41:47.923Z,8.25
2023-03-26T02:44:15.992Z,7.91
2023-03-26T02:46:49.811Z,8.08
2023-03-26T02:49:18.216Z,8.04
2023-03-26T02:51:45.956Z,7.92
2023-03-26T02:54:13.765Z,7.92
2023-03-26T02:56:42.539Z,7.85
2023-03-26T02:59:11.003Z,7.97
2023-03-26T03:01:39.388Z,7.69
2023-03-26T03:04:07.469Z,7.46
2023-03-26T03:06:35.192Z,7.53
2023-03-26T03:09:03.001Z,7.34
2023-03-26T03:11:32.831Z,7.13
2023-03-26T03:14:00.801Z,7.17
2023-03-26T03:16:30.196Z,7.17
2023-03-26T03:18:58.730Z,7.02
2023-03-26T03:21:28.587Z,7.09
2023-03-26T03:23:56.460Z,6.85
2023-03-26T03:26:29.318Z,6.81
2023-03-26T03:28:58.017Z,6.68
2023-03-26T03:31:26.304Z,6.65
2023-03-26T03:33:55.135Z,6.71
2023-03-26T03:36:23.591Z,6.90
2023-03-26T03:38:51.884Z,6.91
2023-03-26T03:41:20.019Z,6.85
2023-03-26T03:43:48.002Z,6.73
2023-03-26T03:46:16.184Z,6.55
2023-03-26T03:48:44.404Z,6.62
2023-03-26T03:51:12.340Z,6.68
2023-03-26T03:53:40.357Z,6.61
2023-03-26T03:56:08.674Z,6.66
2023-03-26T03:58:37.817Z,6.65
2023-03-26T04:01:06.151Z,6.77
2023-03-26T04:03:37.008Z,6.80
2023-03-26T04:06:06.856Z,6.72
2023-03-26T04:08:35.144Z,6.55
2023-03-26T04:11:05.100Z,6.58
2023-03-26T04:13:33.783Z,6.50
2023-03-26T04:16:03.469Z,6.51
2023-03-26T04:18:31.137Z,6.52
2023-03-26T04:21:01.461Z,6.45
2023-03-26T04:23:31.763Z,6.44
2023-03-26T04:26:06.133Z,6.42
2023-03-26T04:28:48.019Z,6.47
2023-03-26T04:31:20.071Z,6.37
2023-03-26T04:33:48.132Z,6.33
2023-03-26T04:36:16.640Z,6.26
2023-03-26T04:38:47.006Z,6.31
2023-03-26T04:41:15.681Z,6.09
2023-03-26T04:43:43.660Z,6.05
2023-03-26T04:46:13.976Z,6.12
2023-03-26T04:48:42.212Z,6.00
2023-03-26T04:51:10.674Z,6.10
2023-03-26T04:53:38.583Z,6.03
2023-03-26T04:56:56.036Z,6.09
2023-03-26T04:59:31.658Z,5.98
2023-03-26T05:02:00.371Z,6.12
2023-03-26T05:04:31.399Z,6.24
2023-03-26T05:06:59.911Z,6.41
2023-03-26T05:09:28.776Z,6.33
2023-03-26T05:11:57.808Z,6.33
2023-03-26T05:14:26.007Z,6.36
2023-03-26T05:16:53.976Z,6.48
2023-03-26T05:19:24.854Z,6.42
2023-03-26T05:21:52.782Z,6.46
2023-03-26T05:24:20.393Z,6.53
2023-03-26T05:26:48.156Z,6.73
2023-03-26T05:29:18.576Z,6.78
2023-03-26T05:31:47.002Z,6.97
2023-03-26T05:34:14.975Z,7.15
2023-03-26T05:36:43.311Z,7.29
2023-03-26T05:39:11.776Z,7.40
2023-03-26T05:41:44.049Z,7.51
2023-03-26T05:44:12.118Z,7.75
2023-03-26T05:46:39.888Z,7.76
2023-03-26T05:49:08.084Z,7.76
2023-03-26T05:51:36.325Z,7.92
2023-03-26T05:54:08.499Z,8.07
2023-03-26T05:56:38.268Z,8.24
2023-03-26T05:59:09.106Z,8.24
2023-03-26T06:01:37.786Z,8.20
2023-03-26T06:04:06.045Z,8.24
2023-03-26T06:06:36.138Z,7.90
2023-03-26T06:09:03.960Z,7.92
2023-03-26T06:11:36.820Z,8.20
2023-03-26T06:14:06.929Z,8.25
2023-03-26T06:16:35.253Z,8.37
2023-03-26T06:19:03.817Z,8.18
2023-03-26T06:21:31.698Z,8.57
2023-03-26T06:24:00.040Z,8.49
2023-03-26T06:26:28.489Z,8.83
2023-03-26T06:28:56.363Z,8.85
2023-03-26T06:31:24.902Z,8.71
2023-03-26T06:33:52.970Z,9.13
2023-03-26T06:36:20.605Z,8.95
2023-03-26T06:38:51.749Z,9.16
2023-03-26T06:41:19.490Z,9.07
2023-03-26T06:43:50.592Z,9.32
2023-03-26T06:46:18.519Z,9.40
2023-03-26T06:48:54.903Z,9.69
2023-03-26T06:51:23.781Z,9.52
2023-03-26T06:53:53.339Z,9.80
2023-03-26T06:56:21.720Z,10.20
2023-03-26T06:58:49.728Z,10.31
2023-03-26T07:01:21.382Z,10.49
2023-03-26T07:04:01.373Z,10.64
2023-03-26T07:06:54.307Z,10.97
2023-03-26T07:09:31.497Z,11.33
2023-03-26T07:12:00.642Z,11.47
2023-03-26T07:14:28.901Z,11.57
2023-03-26T07:16:59.113Z,11.64
2023-03-26T07:19:33.031Z,11.83
2023-03-26T07:22:01.990Z,12.08
2023-03-26T07:24:32.642Z,12.12
2023-03-26T07:27:13.423Z,12.28
2023-03-26T07:29:49.206Z,12.49
2023-03-26T07:32:42.177Z,12.38
2023-03-26T07:35:37.065Z,11.73
2023-03-26T07:38:13.634Z,11.77
2023-03-26T07:40:51.377Z,11.97
2023-03-26T07:43:48.838Z,12.01
2023-03-26T07:46:17.478Z,11.82
2023-03-26T07:48:48.068Z,12.15
2023-03-26T07:51:16.422Z,12.14
2023-03-26T07:53:45.080Z,11.98
2023-03-26T07:56:17.778Z,11.90
2023-03-26T07:58:56.598Z,11.70
2023-03-26T08:01:36.665Z,11.79
2023-03-26T08:04:27.105Z,11.74
2023-03-26T08:07:08.392Z,11.78
2023-03-26T08:09:56.616Z,11.92
2023-03-26T08:12:57.504Z,11.99
2023-03-26T08:15:36.580Z,12.43
2023-03-26T08:18:38.552Z,12.20
2023-03-26T08:21:17.348Z,12.59
2023-03-26T08:23:58.778Z,12.16
2023-03-26T08:26:32.735Z,12.20
2023-03-26T08:29:14.009Z,12.08
2023-03-26T08:31:43.423Z,12.03
2023-03-26T08:34:12.215Z,12.57
2023-03-26T08:36:40.102Z,12.60
2023-03-26T08:39:08.295Z,12.57
2023-03-26T08:42:00.468Z,13.00
2023-03-26T08:45:06.478Z,13.46
2023-03-26T08:48:01.602Z,12.87
2023-03-26T08:50:53.055Z,13.04
2023-03-26T08:53:57.771Z,13.33
2023-03-26T08:56:31.935Z,12.92
2023-03-26T08:59:21.398Z,12.96
2023-03-26T09:02:17.201Z,13.12
2023-03-26T09:05:03.702Z,13.57
2023-03-26T09:08:09.244Z,13.39
2023-03-26T09:11:14.630Z,13.47
2023-03-26T09:14:20.150Z,13.37
2023-03-26T09:17:01.787Z,13.72
2023-03-26T09:19:55.631Z,13.82
2023-03-26T09:22:38.740Z,14.01
2023-03-26T09:25:12.766Z,14.39
2023-03-26T09:27:55.886Z,14.49
2023-03-26T09:30:32.732Z,14.35
2023-03-26T09:33:17.424Z,14.72
2023-03-26T09:35:52.691Z,14.88
2023-03-26T09:38:44.257Z,14.94
2023-03-26T09:41:18.327Z,14.80
2023-03-26T09:43:51.796Z,15.04
2023-03-26T09:46:34.588Z,15.24
2023-03-26T09:49:16.623Z,15.03
2023-03-26T09:52:15.587Z,15.35
2023-03-26T09:55:29.826Z,15.91
2023-03-26T09:58:35.524Z,16.26
2023-03-26T10:01:18.206Z,16.28
2023-03-26T10:04:17.061Z,16.30
2023-03-26T10:07:04.414Z,16.43
2023-03-26T10:09:44.983Z,16.57
2023-03-26T10:12:21.856Z,16.70
2023-03-26T10:14:52.441Z,16.54
2023-03-26T10:17:20.040Z,16.64
2023-03-26T10:20:24.190Z,16.82
2023-03-26T10:23:01.741Z,16.79
2023-03-26T10:25:39.329Z,16.91
2023-03-26T10:28:21.268Z,16.71
2023-03-26T10:30:55.270Z,16.96
2023-03-26T10:33:38.242Z,17.09
2023-03-26T10:36:05.835Z,16.85
2023-03-26T10:39:11.530Z,16.12
2023-03-26T10:42:11.525Z,15.94
2023-03-26T10:44:55.402Z,15.77
2023-03-26T10:47:29.621Z,15.52
2023-03-26T10:50:26.684Z,15.19
2023-03-26T10:53:35.951Z,14.60
2023-03-26T10:56:14.454Z,13.38
2023-03-26T10:58:46.102Z,12.89
2023-03-26T11:01:41.532Z,12.34
2023-03-26T11:04:46.612Z,12.09
2023-03-26T11:07:35.262Z,12.15
2023-03-26T11:10:11.594Z,12.18
2023-03-26T11:12:49.253Z,12.52
2023-03-26T11:15:40.493Z,13.35
2023-03-26T11:18:16.108Z,14.04
2023-03-26T11:21:20.604Z,14.32
2023-03-26T11:24:04.988Z,15.45
2023-03-26T11:26:48.028Z,15.87
2023-03-26T11:29:31.378Z,15.99
2023-03-26T11:32:45.454Z,16.43
2023-03-26T11:35:41.025Z,16.31
2023-03-26T11:38:15.840Z,16.02
2023-03-26T11:40:44.559Z,15.95
2023-03-26T11:43:13.564Z,15.46
2023-03-26T11:45:44.908Z,15.20
2023-03-26T11:48:22.259Z,15.80
2023-03-26T11:50:55.408Z,15.80
2023-03-26T11:53:28.939Z,16.13
2023-03-26T11:56:13.166Z,16.00
2023-03-26T11:58:54.868Z,16.05
2023-03-26T12:01:40.857Z,16.02
2023-03-26T12:04:14.102Z,15.75
2023-03-26T12:06:58.199Z,16.09
2023-03-26T12:09:26.563Z,15.80
2023-03-26T12:12:00.101Z,16.16
2023-03-26T12:14:30.809Z,16.78
2023-03-26T12:17:01.615Z,17.30
2023-03-26T12:19:38.368Z,17.92
2023-03-26T12:22:06.507Z,18.14
2023-03-26T12:24:36.521Z,17.57
2023-03-26T12:27:26.684Z,17.87
2023-03-26T12:30:20.085Z,17.98
2023-03-26T12:32:49.635Z,17.82
2023-03-26T12:35:26.991Z,18.30
2023-03-26T12:38:33.560Z,18.39
2023-03-26T12:44:44.495Z,18.19
2023-03-26T12:44:56.530Z,17.93
2023-03-26T12:47:58.043Z,17.72
2023-03-26T12:50:15.484Z,17.98
2023-03-26T12:53:12.161Z,17.80
2023-03-26T12:55:43.276Z,17.94
2023-03-26T12:58:27.639Z,18.48
2023-03-26T13:01:11.125Z,18.66
2023-03-26T13:03:57.670Z,18.25
2023-03-26T13:06:58.920Z,17.57
2023-03-26T13:09:42.247Z,18.34
2023-03-26T13:12:21.534Z,18.47
2023-03-26T13:15:04.565Z,18.43
2023-03-26T13:17:44.266Z,18.61
2023-03-26T13:20:38.336Z,18.07
2023-03-26T13:23:18.342Z,17.66
2023-03-26T13:25:49.205Z,17.71
2023-03-26T13:28:26.100Z,17.12
2023-03-26T13:31:04.261Z,17.48
2023-03-26T13:33:42.907Z,17.42
2023-03-26T13:36:36.619Z,17.05
2023-03-26T13:39:30.990Z,16.98
2023-03-26T13:42:23.987Z,16.72
2023-03-26T13:45:35.575Z,17.49
2023-03-26T13:48:14.679Z,16.81
2023-03-26T13:50:44.775Z,16.91
2023-03-26T13:53:24.798Z,16.79
2023-03-26T13:56:00.149Z,16.42
2023-03-26T13:59:09.237Z,16.89
2023-03-26T14:01:41.936Z,16.92
2023-03-26T14:04:18.699Z,16.33
2023-03-26T14:07:01.230Z,16.60
2023-03-26T14:09:35.135Z,16.76
2023-03-26T14:12:38.850Z,16.57
2023-03-26T14:15:14.091Z,16.46
2023-03-26T14:17:50.759Z,16.68
2023-03-26T14:20:36.655Z,16.54
2023-03-26T14:23:35.684Z,16.72
2023-03-26T14:26:15.681Z,16.67
2023-03-26T14:28:46.240Z,16.77
2023-03-26T14:31:17.452Z,16.52
2023-03-26T14:34:05.121Z,16.71
2023-03-26T14:36:47.894Z,16.18
2023-03-26T14:39:22.628Z,16.58
2023-03-26T14:42:02.635Z,16.60
2023-03-26T14:45:07.882Z,17.38
2023-03-26T14:47:42.873Z,17.85
2023-03-26T14:50:13.798Z,18.10
2023-03-26T14:52:48.031Z,18.19
2023-03-26T14:55:34.812Z,17.93
2023-03-26T14:58:19.740Z,17.42
2023-03-26T15:01:06.667Z,17.58
2023-03-26T15:03:43.601Z,17.43
2023-03-26T15:06:14.465Z,17.73
2023-03-26T15:09:10.039Z,17.18
2023-03-26T15:12:13.185Z,17.16
2023-03-26T15:14:59.591Z,17.94
2023-03-26T15:17:51.044Z,18.48
2023-03-26T15:20:45.373Z,18.41
2023-03-26T15:23:40.885Z,18.39
2023-03-26T15:26:11.379Z,18.78
2023-03-26T15:29:07.207Z,18.85
2023-03-26T15:32:00.262Z,18.61
2023-03-26T15:34:50.406Z,18.31
2023-03-26T15:37:36.533Z,18.17
2023-03-26T15:40:16.930Z,17.78
2023-03-26T15:43:06.465Z,18.17
2023-03-26T15:45:49.892Z,17.23
2023-03-26T15:48:35.508Z,17.11
2023-03-26T15:51:24.809Z,16.63
2023-03-26T15:53:59.810Z,16.56
2023-03-26T15:56:58.516Z,16.62
2023-03-26T15:59:38.007Z,16.62
2023-03-26T16:02:43.342Z,16.71
2023-03-26T16:05:25.364Z,16.30
2023-03-26T16:08:23.328Z,16.14
2023-03-26T16:10:58.976Z,16.01
2023-03-26T16:13:34.174Z,16.14
2023-03-26T16:16:05.060Z,16.11
2023-03-26T16:18:37.069Z,16.15
2023-03-26T16:21:30.576Z,15.97
2023-03-26T16:24:02.203Z,15.60
2023-03-26T16:26:48.718Z,15.50
2023-03-26T16:29:22.559Z,15.38
2023-03-26T16:31:59.460Z,15.37
2023-03-26T16:34:38.760Z,15.23
2023-03-26T16:37:33.116Z,14.91
2023-03-26T16:40:18.352Z,14.91
2023-03-26T16:42:58.505Z,14.79
2023-03-26T16:45:34.116Z,14.83
2023-03-26T16:48:27.841Z,14.69
2023-03-26T16:51:33.786Z,14.69
2023-03-26T16:54:20.030Z,14.48
2023-03-26T16:56:57.114Z,14.50
2023-03-26T17:00:04.519Z,14.42
2023-03-26T17:02:57.653Z,14.23
2023-03-26T17:06:04.026Z,14.25
2023-03-26T17:08:35.634Z,14.20
2023-03-26T17:11:24.401Z,14.14
2023-03-26T17:13:58.550Z,13.94
2023-03-26T17:16:50.134Z,13.94
2023-03-26T17:19:37.128Z,13.93
2023-03-26T17:22:23.903Z,13.72
2023-03-26T17:25:22.822Z,13.79
2023-03-26T17:28:12.460Z,13.73
2023-03-26T17:31:11.535Z,13.71
2023-03-26T17:33:39.860Z,13.64
2023-03-26T17:36:19.742Z,13.63
2023-03-26T17:38:47.792Z,13.53
2023-03-26T17:41:50.197Z,13.54
2023-03-26T17:45:06.822Z,13.51
2023-03-26T17:47:38.677Z,13.38
2023-03-26T17:50:24.346Z,13.39
2023-03-26T17:52:56.148Z,13.30
2023-03-26T17:55:31.475Z,13.34
2023-03-26T17:58:01.340Z,13.37
2023-03-26T18:00:36.336Z,13.26
2023-03-26T18:03:30.852Z,13.14
2023-03-26T18:06:06.574Z,13.06
2023-03-26T18:08:34.799Z,12.96
2023-03-26T18:11:08.693Z,12.77
2023-03-26T18:13:58.686Z,12.72
2023-03-26T18:16:30.930Z,12.74
2023-03-26T18:19:00.810Z,12.81
2023-03-26T18:21:39.655Z,12.73
2023-03-26T18:24:31.622Z,12.74
2023-03-26T18:27:03.709Z,12.83
2023-03-26T18:29:33.966Z,12.81
2023-03-26T18:32:11.981Z,12.84
2023-03-26T18:34:47.375Z,12.93
2023-03-26T18:37:28.339Z,12.93
2023-03-26T18:40:08.073Z,12.96
2023-03-26T18:42:36.336Z,13.01
2023-03-26T18:45:08.938Z,13.00
2023-03-26T18:47:37.131Z,13.03
2023-03-26T18:50:20.641Z,13.05
2023-03-26T18:52:48.857Z,13.09
2023-03-26T18:55:17.952Z,13.17
2023-03-26T18:57:50.056Z,13.34
2023-03-26T19:00:27.216Z,13.29
2023-03-26T19:03:10.119Z,13.28
2023-03-26T19:05:38.752Z,13.37
2023-03-26T19:08:06.885Z,13.21
2023-03-26T19:10:36.294Z,13.14
2023-03-26T19:13:04.532Z,13.14
2023-03-26T19:15:34.408Z,13.08
2023-03-26T19:18:04.907Z,13.07
2023-03-26T19:20:40.090Z,13.12
2023-03-26T19:23:13.288Z,13.33
2023-03-26T19:25:45.063Z,13.34
2023-03-26T19:28:20.733Z,13.54
2023-03-26T19:31:00.140Z,13.36
2023-03-26T19:33:40.668Z,13.56
2023-03-26T19:36:20.546Z,13.44
2023-03-26T19:38:48.401Z,13.35
2023-03-26T19:41:30.181Z,13.32
2023-03-26T19:44:03.562Z,13.43
2023-03-26T19:46:35.232Z,13.46
2023-03-26T19:49:33.565Z,13.36
2023-03-26T19:52:12.745Z,13.30
2023-03-26T19:54:59.780Z,13.29
2023-03-26T19:57:30.730Z,13.28
2023-03-26T20:00:07.925Z,13.21
2023-03-26T20:02:36.349Z,13.24
2023-03-26T20:05:22.431Z,13.25
2023-03-26T20:07:51.066Z,13.09
2023-03-26T20:10:20.013Z,13.00
2023-03-26T20:12:47.873Z,13.03
2023-03-26T20:15:20.253Z,13.02
2023-03-26T20:17:48.233Z,13.24
2023-03-26T20:20:17.194Z,12.91
2023-03-26T20:22:46.086Z,13.03
2023-03-26T20:25:19.849Z,12.93
2023-03-26T20:27:48.114Z,13.04
2023-03-26T20:30:27.515Z,12.96
2023-03-26T20:33:12.028Z,12.86
2023-03-26T20:35:41.552Z,12.96
2023-03-26T20:38:09.973Z,12.88
2023-03-26T20:40:38.731Z,12.75
2023-03-26T20:43:11.548Z,12.71
2023-03-26T20:45:40.383Z,12.77
2023-03-26T20:48:08.814Z,12.99
2023-03-26T20:50:38.739Z,13.01
2023-03-26T20:53:16.889Z,12.56
2023-03-26T20:55:45.114Z,12.75
2023-03-26T20:58:19.716Z,12.66
2023-03-26T21:01:00.872Z,12.43
2023-03-26T21:03:30.449Z,12.42
2023-03-26T21:06:01.656Z,12.48
2023-03-26T21:08:30.190Z,12.43
2023-03-26T21:10:58.125Z,12.28
2023-03-26T21:13:33.266Z,12.40
2023-03-26T21:16:01.373Z,12.21
2023-03-26T21:18:29.971Z,12.20
2023-03-26T21:21:18.027Z,12.03
2023-03-26T21:23:54.482Z,11.95
2023-03-26T21:26:30.159Z,12.15
2023-03-26T21:28:58.443Z,12.12
2023-03-26T21:31:26.531Z,12.21
2023-03-26T21:33:54.532Z,12.05
2023-03-26T21:36:23.260Z,12.14
2023-03-26T21:38:53.595Z,11.99
2023-03-26T21:41:23.169Z,11.81
2023-03-26T21:43:51.501Z,11.74
2023-03-26T21:46:19.546Z,11.60
2023-03-26T21:48:47.720Z,11.56
2023-03-26T21:51:16.130Z,11.40
2023-03-26T21:53:44.009Z,11.35
2023-03-26T21:56:36.427Z,11.27
2023-03-26T21:59:17.877Z,11.03
2023-03-26T22:02:24.471Z,10.72
2023-03-26T22:04:57.672Z,11.15
2023-03-26T22:07:34.120Z,11.23
2023-03-26T22:10:02.704Z,11.26
2023-03-26T22:12:30.643Z,11.22
2023-03-26T22:14:58.254Z,11.38
2023-03-26T22:17:26.316Z,11.22
2023-03-26T22:19:54.847Z,11.47
2023-03-26T22:22:22.555Z,10.99
2023-03-26T22:24:50.536Z,11.07
2023-03-26T22:27:18.174Z,10.98
2023-03-26T22:29:48.877Z,10.90
2023-03-26T22:32:16.812Z,10.91
2023-03-26T22:34:44.644Z,10.92
2023-03-26T22:37:12.325Z,11.16
2023-03-26T22:39:40.321Z,10.84
2023-03-26T22:42:08.148Z,10.84
2023-03-26T22:44:35.958Z,10.89
2023-03-26T22:47:03.879Z,10.86
2023-03-26T22:49:32.749Z,10.36
2023-03-26T22:52:00.424Z,10.13
2023-03-26T22:54:28.638Z,9.90
2023-03-26T22:56:56.270Z,9.96
2023-03-26T22:59:23.940Z,10.40
2023-03-26T23:01:51.996Z,10.37
2023-03-26T23:04:31.406Z,9.88
2023-03-26T23:07:00.219Z,10.12
2023-03-26T23:09:28.336Z,10.42
2023-03-26T23:11:56.156Z,10.21
2023-03-26T23:14:24.151Z,10.10
2023-03-26T23:16:51.790Z,9.94
2023-03-26T23:19:19.492Z,10.06
2023-03-26T23:21:47.485Z,9.89
2023-03-26T23:24:15.417Z,9.91
2023-03-26T23:26:50.600Z,10.09
2023-03-26T23:29:19.173Z,10.10
2023-03-26T23:31:47.181Z,10.44
2023-03-26T23:34:14.962Z,10.23
2023-03-26T23:36:42.907Z,10.11
2023-03-26T23:39:10.710Z,10.35
2023-03-26T23:41:45.726Z,10.32
2023-03-26T23:44:13.764Z,10.44
2023-03-26T23:46:41.482Z,10.28
2023-03-26T23:49:09.251Z,10.11
2023-03-26T23:51:37.143Z,10.38
2023-03-26T23:54:04.838Z,10.37
2023-03-26T23:56:32.680Z,10.44
2023-03-26T23:59:00.931Z,10.70
